createdAt,value
2019-02-18T00:02:00.010Z,100138.17
2019-02-18T00:04:29.402Z,100144.55
2019-02-18T00:06:58.807Z,100144.79
2019-02-18T00:09:28.269Z,100136.00
2019-02-18T00:11:57.724Z,100135.59
2019-02-18T00:14:27.113Z,100136.62
2019-02-18T00:16:56.514Z,100129.13
2019-02-18T00:19:26.137Z,100126.62
2019-02-18T00:21:55.542Z,100128.78
2019-02-18T00:24:25.057Z,100134.64
2019-02-18T00:26:54.385Z,100133.83
2019-02-18T00:29:23.812Z,100130.55
2019-02-18T00:31:53.423Z,100130.31
2019-02-18T00:34:23.065Z,100128.13
2019-02-18T00:36:52.459Z,100131.69
2019-02-18T00:39:21.856Z,100133.25
2019-02-18T00:41:51.229Z,100132.69
2019-02-18T00:44:22.277Z,100132.89
2019-02-18T00:46:51.686Z,100136.80
2019-02-18T00:49:21.088Z,100137.62
2019-02-18T00:51:50.466Z,100136.28
2019-02-18T00:54:20.264Z,100132.13
2019-02-18T00:56:49.656Z,100132.13
2019-02-18T00:59:19.037Z,100134.06
2019-02-18T01:01:48.535Z,100129.17
2019-02-18T01:04:18.177Z,100134.08
2019-02-18T01:06:47.607Z,100129.28
2019-02-18T01:09:17.003Z,100130.80
2019-02-18T01:11:46.624Z,100130.02
2019-02-18T01:14:16.040Z,100123.56
2019-02-18T01:16:45.403Z,100127.08
2019-02-18T01:19:14.820Z,100121.49
2019-02-18T01:21:44.237Z,100125.12
2019-02-18T01:24:13.970Z,100123.70
2019-02-18T01:26:43.361Z,100127.37
2019-02-18T01:29:12.733Z,100133.27
2019-02-18T01:31:42.124Z,100135.67
2019-02-18T01:34:11.507Z,100131.39
2019-02-18T01:36:43.207Z,100131.18
2019-02-18T01:39:15.876Z,100131.61
2019-02-18T01:41:45.322Z,100133.31
2019-02-18T01:44:14.692Z,100130.68
2019-02-18T01:46:44.161Z,100133.73
2019-02-18T01:49:13.625Z,100129.12
2019-02-18T01:51:43.194Z,100121.09
2019-02-18T01:54:12.837Z,100122.03
2019-02-18T01:56:42.293Z,100117.67
2019-02-18T01:59:14.279Z,100124.74
2019-02-18T02:01:43.655Z,100120.34
2019-02-18T02:04:13.053Z,100120.93
2019-02-18T02:06:42.808Z,100123.02
2019-02-18T02:09:13.849Z,100119.88
2019-02-18T02:11:43.349Z,100118.05
2019-02-18T02:14:12.792Z,100116.02
2019-02-18T02:16:42.130Z,100118.13
2019-02-18T02:19:11.648Z,100114.36
2019-02-18T02:21:41.630Z,100108.06
2019-02-18T02:24:11.667Z,100115.48
2019-02-18T02:26:41.153Z,100117.19
2019-02-18T02:29:10.542Z,100114.36
2019-02-18T02:31:39.932Z,100109.95
2019-02-18T02:34:09.317Z,100107.84
2019-02-18T02:36:38.690Z,100110.52
2019-02-18T02:39:11.034Z,100108.05
2019-02-18T02:41:40.405Z,100105.75
2019-02-18T02:44:10.634Z,100106.41
2019-02-18T02:46:40.000Z,100101.45
2019-02-18T02:49:09.771Z,100099.27
2019-02-18T02:51:39.163Z,100096.34
2019-02-18T02:54:08.873Z,100093.78
2019-02-18T02:56:38.312Z,100092.91
2019-02-18T02:59:07.981Z,100090.58
2019-02-18T03:01:37.343Z,100094.37
2019-02-18T03:04:06.765Z,100093.09
2019-02-18T03:06:36.123Z,100092.63
2019-02-18T03:09:08.503Z,100088.52
2019-02-18T03:11:37.915Z,100087.59
2019-02-18T03:14:07.632Z,100082.25
2019-02-18T03:16:37.038Z,100084.92
2019-02-18T03:19:06.746Z,100091.41
2019-02-18T03:21:36.140Z,100089.47
2019-02-18T03:24:05.513Z,100082.96
2019-02-18T03:26:35.375Z,100084.28
2019-02-18T03:29:17.918Z,100084.73
2019-02-18T03:31:47.382Z,100079.53
2019-02-18T03:34:21.459Z,100079.19
2019-02-18T03:36:50.908Z,100077.17
2019-02-18T03:39:20.543Z,100077.03
2019-02-18T03:41:49.907Z,100075.63
2019-02-18T03:44:19.270Z,100077.66
2019-02-18T03:46:50.605Z,100078.20
2019-02-18T03:49:19.845Z,100077.17
2019-02-18T03:51:49.252Z,100076.64
2019-02-18T03:54:18.609Z,100077.92
2019-02-18T03:56:48.018Z,100077.34
2019-02-18T03:59:17.395Z,100079.58
2019-02-18T04:01:46.952Z,100082.55
2019-02-18T04:04:16.439Z,100080.42
2019-02-18T04:06:46.002Z,100079.38
2019-02-18T04:09:15.601Z,100077.30
2019-02-18T04:11:45.256Z,100073.87
2019-02-18T04:14:14.794Z,100072.45
2019-02-18T04:16:44.446Z,100074.23
2019-02-18T04:19:14.489Z,100074.20
2019-02-18T04:21:44.525Z,100076.08
2019-02-18T04:24:14.939Z,100069.52
2019-02-18T04:26:44.316Z,100072.59
2019-02-18T04:29:13.692Z,100072.99
2019-02-18T04:31:43.118Z,100076.72
2019-02-18T04:34:12.456Z,100070.97
2019-02-18T04:36:44.852Z,100076.88
2019-02-18T04:39:14.225Z,100073.56
2019-02-18T04:41:43.632Z,100071.08
2019-02-18T04:44:12.999Z,100075.82
2019-02-18T04:46:42.491Z,100073.26
2019-02-18T04:49:11.873Z,100069.72
2019-02-18T04:51:41.267Z,100074.70
2019-02-18T04:54:10.730Z,100073.70
2019-02-18T04:56:43.100Z,100074.62
2019-02-18T04:59:12.508Z,100073.78
2019-02-18T05:01:42.357Z,100075.84
2019-02-18T05:04:14.039Z,100076.71
2019-02-18T05:06:42.950Z,100074.32
2019-02-18T05:09:12.305Z,100071.11
2019-02-18T05:11:41.818Z,100065.52
2019-02-18T05:14:11.272Z,100069.19
2019-02-18T05:16:41.017Z,100066.98
2019-02-18T05:19:10.404Z,100072.59
2019-02-18T05:21:39.803Z,100066.75
2019-02-18T05:24:09.268Z,100066.12
2019-02-18T05:26:38.656Z,100067.33
2019-02-18T05:29:08.049Z,100072.95
2019-02-18T05:31:37.575Z,100064.09
2019-02-18T05:34:06.935Z,100058.12
2019-02-18T05:36:36.515Z,100061.66
2019-02-18T05:39:17.503Z,100060.14
2019-02-18T05:41:49.981Z,100062.86
2019-02-18T05:44:15.428Z,100064.28
2019-02-18T05:46:44.899Z,100068.59
2019-02-18T05:49:14.322Z,100066.55
2019-02-18T05:51:43.913Z,100061.17
2019-02-18T05:54:14.157Z,100053.67
2019-02-18T05:56:44.403Z,100056.97
2019-02-18T05:59:14.663Z,100055.87
2019-02-18T06:01:44.211Z,100052.45
2019-02-18T06:04:13.882Z,100043.02
2019-02-18T06:06:43.349Z,100050.40
2019-02-18T06:09:12.735Z,100051.98
2019-02-18T06:11:42.367Z,100053.70
2019-02-18T06:14:11.792Z,100051.53
2019-02-18T06:16:41.191Z,100046.97
2019-02-18T06:19:10.691Z,100048.48
2019-02-18T06:21:40.197Z,100055.80
2019-02-18T06:24:09.695Z,100049.69
2019-02-18T06:26:41.431Z,100051.17
2019-02-18T06:29:11.198Z,100042.48
2019-02-18T06:31:45.941Z,100044.63
2019-02-18T06:34:18.692Z,100042.58
2019-02-18T06:36:51.795Z,100040.66
2019-02-18T06:39:23.134Z,100046.44
2019-02-18T06:41:52.815Z,100046.51
2019-02-18T06:44:26.770Z,100047.70
2019-02-18T06:46:59.649Z,100050.33
2019-02-18T06:49:29.657Z,100046.82
2019-02-18T06:51:59.198Z,100047.61
2019-02-18T06:54:28.716Z,100052.69
2019-02-18T06:57:10.977Z,100049.04
2019-02-18T06:59:41.831Z,100047.01
2019-02-18T07:02:13.037Z,100043.97
2019-02-18T07:04:56.792Z,100039.91
2019-02-18T07:07:40.428Z,100045.23
2019-02-18T07:10:12.113Z,100052.44
2019-02-18T07:12:43.329Z,100052.80
2019-02-18T07:15:13.294Z,100053.19
2019-02-18T07:17:42.929Z,100055.11
2019-02-18T07:20:12.643Z,100048.79
2019-02-18T07:22:43.511Z,100048.70
2019-02-18T07:25:13.161Z,100041.80
2019-02-18T07:27:45.210Z,100049.86
2019-02-18T07:30:15.276Z,100039.84
2019-02-18T07:32:44.829Z,100032.77
2019-02-18T07:35:15.223Z,100038.52
2019-02-18T07:37:46.267Z,100033.29
2019-02-18T07:40:15.879Z,100030.44
2019-02-18T07:42:45.865Z,100034.92
2019-02-18T07:45:15.560Z,100031.69
2019-02-18T07:47:48.667Z,100030.44
2019-02-18T07:50:20.969Z,100022.33
2019-02-18T07:52:49.891Z,100023.72
2019-02-18T07:55:19.778Z,100022.45
2019-02-18T07:57:49.713Z,100019.04
2019-02-18T08:00:20.009Z,100011.77
2019-02-18T08:02:51.559Z,100014.67
2019-02-18T08:05:23.614Z,100019.06
2019-02-18T08:07:53.163Z,100019.63
2019-02-18T08:10:22.753Z,100010.58
2019-02-18T08:13:07.479Z,100018.17
2019-02-18T08:15:37.516Z,100013.83
2019-02-18T08:18:06.949Z,100011.48
2019-02-18T08:20:36.871Z,100011.50
2019-02-18T08:23:07.743Z,100008.66
2019-02-18T08:25:37.737Z,100010.66
2019-02-18T08:28:07.529Z,100012.05
2019-02-18T08:30:37.359Z,100010.59
2019-02-18T08:33:07.117Z,100009.83
2019-02-18T08:35:39.577Z,100009.86
2019-02-18T08:38:13.786Z,100009.41
2019-02-18T08:40:43.655Z,100005.19
2019-02-18T08:43:13.494Z,100002.58
2019-02-18T08:45:47.288Z,99999.43
2019-02-18T08:48:19.847Z,99999.58
2019-02-18T08:50:49.417Z,99997.55
2019-02-18T08:53:19.126Z,99997.38
2019-02-18T08:55:49.456Z,99999.91
2019-02-18T08:58:19.280Z,99996.38
2019-02-18T09:00:48.994Z,99994.78
2019-02-18T09:03:18.797Z,99990.54
2019-02-18T09:05:48.380Z,99992.78
2019-02-18T09:08:18.886Z,99991.16
2019-02-18T09:10:48.976Z,99990.45
2019-02-18T09:13:19.235Z,99992.18
2019-02-18T09:15:59.422Z,99983.63
2019-02-18T09:18:20.898Z,99981.78
2019-02-18T09:20:52.301Z,99975.88
2019-02-18T09:23:23.847Z,99978.56
2019-02-18T09:25:55.073Z,99973.76
2019-02-18T09:28:24.932Z,99971.83
2019-02-18T09:30:56.529Z,99971.11
2019-02-18T09:33:26.710Z,99970.22
2019-02-18T09:35:56.337Z,99974.22
2019-02-18T09:38:26.181Z,99976.27
2019-02-18T09:41:17.006Z,99973.88
2019-02-18T09:43:46.998Z,99978.05
2019-02-18T09:46:19.682Z,99983.03
2019-02-18T09:48:52.740Z,99981.81
2019-02-18T09:51:25.326Z,99975.16
2019-02-18T09:53:54.928Z,99977.83
2019-02-18T09:56:24.665Z,99976.50
2019-02-18T09:58:54.573Z,99978.06
2019-02-18T10:01:24.535Z,99974.14
2019-02-18T10:03:54.474Z,99970.87
2019-02-18T10:06:24.115Z,99972.75
2019-02-18T10:08:54.305Z,99967.85
2019-02-18T10:11:23.929Z,99967.56
2019-02-18T10:13:53.604Z,99970.78
2019-02-18T10:16:23.120Z,99967.64
2019-02-18T10:18:52.587Z,99970.67
2019-02-18T10:21:30.181Z,99966.43
2019-02-18T10:23:59.748Z,99965.23
2019-02-18T10:26:29.208Z,99965.02
2019-02-18T10:28:58.970Z,99965.92
2019-02-18T10:31:29.008Z,99969.13
2019-02-18T10:33:59.238Z,99966.01
2019-02-18T10:36:28.688Z,99965.30
2019-02-18T10:38:58.649Z,99950.20
2019-02-18T10:41:28.223Z,99950.44
2019-02-18T10:43:58.313Z,99947.67
2019-02-18T10:46:28.459Z,99948.77
2019-02-18T10:48:58.112Z,99946.30
2019-02-18T10:51:30.152Z,99942.37
2019-02-18T10:53:59.853Z,99944.28
2019-02-18T10:56:29.723Z,99940.61
2019-02-18T10:58:59.675Z,99943.09
2019-02-18T11:01:29.221Z,99932.96
2019-02-18T11:03:58.784Z,99926.82
2019-02-18T11:06:28.234Z,99931.55
2019-02-18T11:08:57.828Z,99923.39
2019-02-18T11:11:30.214Z,99921.66
2019-02-18T11:14:00.874Z,99917.57
2019-02-18T11:16:30.657Z,99920.27
2019-02-18T11:19:01.287Z,99920.19
2019-02-18T11:21:30.920Z,99912.46
2019-02-18T11:24:02.279Z,99905.09
2019-02-18T11:26:31.892Z,99905.23
2019-02-18T11:29:02.842Z,99900.63
2019-02-18T11:31:33.722Z,99903.09
2019-02-18T11:34:03.254Z,99905.19
2019-02-18T11:36:32.720Z,99906.92
2019-02-18T11:39:02.174Z,99900.02
2019-02-18T11:41:31.577Z,99892.22
2019-02-18T11:44:01.652Z,99892.12
2019-02-18T11:46:31.693Z,99886.06
2019-02-18T11:49:01.147Z,99878.87
2019-02-18T11:51:30.814Z,99868.03
2019-02-18T11:54:01.429Z,99858.53
2019-02-18T11:56:32.613Z,99858.83
2019-02-18T11:59:02.386Z,99858.45
2019-02-18T12:01:32.323Z,99858.81
2019-02-18T12:04:01.825Z,99862.40
2019-02-18T12:06:34.785Z,99856.91
2019-02-18T12:09:05.228Z,99849.92
2019-02-18T12:11:37.824Z,99849.47
2019-02-18T12:14:06.634Z,99843.86
2019-02-18T12:16:36.506Z,99835.00
2019-02-18T12:19:09.248Z,99834.25
2019-02-18T12:21:38.950Z,99826.05
2019-02-18T12:24:08.600Z,99823.17
2019-02-18T12:26:39.046Z,99820.72
2019-02-18T12:29:08.879Z,99817.70
2019-02-18T12:31:38.554Z,99810.45
2019-02-18T12:34:08.110Z,99812.00
2019-02-18T12:36:37.634Z,99804.05
2019-02-18T12:39:09.067Z,99804.90
2019-02-18T12:41:48.231Z,99794.84
2019-02-18T12:44:10.484Z,99801.06
2019-02-18T12:46:40.463Z,99793.38
2019-02-18T12:49:25.080Z,99788.64
2019-02-18T12:51:56.744Z,99780.76
2019-02-18T12:54:26.558Z,99775.34
2019-02-18T12:56:56.103Z,99771.05
2019-02-18T12:59:25.652Z,99771.63
2019-02-18T13:01:55.355Z,99769.81
2019-02-18T13:04:26.453Z,99766.00
2019-02-18T13:06:56.639Z,99761.86
2019-02-18T13:09:28.855Z,99758.06
2019-02-18T13:11:59.276Z,99759.74
2019-02-18T13:14:30.582Z,99751.95
2019-02-18T13:17:00.554Z,99754.08
2019-02-18T13:19:30.373Z,99739.81
2019-02-18T13:22:01.816Z,99738.53
2019-02-18T13:24:34.489Z,99735.75
2019-02-18T13:27:04.074Z,99729.77
2019-02-18T13:29:33.766Z,99729.53
2019-02-18T13:32:03.551Z,99725.63
2019-02-18T13:34:36.276Z,99726.56
2019-02-18T13:37:06.330Z,99722.51
2019-02-18T13:39:36.008Z,99721.55
2019-02-18T13:42:07.642Z,99720.15
2019-02-18T13:44:41.471Z,99717.73
2019-02-18T13:47:14.399Z,99710.30
2019-02-18T13:49:50.447Z,99713.70
2019-02-18T13:52:20.145Z,99718.42
2019-02-18T13:54:50.013Z,99712.44
2019-02-18T13:57:25.464Z,99705.78
2019-02-18T13:59:55.331Z,99705.14
2019-02-18T14:02:27.281Z,99702.42
2019-02-18T14:04:56.834Z,99699.94
2019-02-18T14:07:28.660Z,99701.32
2019-02-18T14:09:59.247Z,99700.66
2019-02-18T14:12:30.787Z,99700.81
2019-02-18T14:15:01.064Z,99693.91
2019-02-18T14:17:31.860Z,99697.13
2019-02-18T14:20:18.359Z,99693.58
2019-02-18T14:22:48.185Z,99688.27
2019-02-18T14:25:18.038Z,99687.78
2019-02-18T14:27:47.550Z,99694.14
2019-02-18T14:30:19.111Z,99689.23
2019-02-18T14:32:49.501Z,99693.80
2019-02-18T14:35:22.138Z,99691.23
2019-02-18T14:37:54.140Z,99691.71
2019-02-18T14:40:32.051Z,99692.78
2019-02-18T14:43:03.457Z,99690.03
2019-02-18T14:45:33.539Z,99687.71
2019-02-18T14:48:04.904Z,99687.69
2019-02-18T14:50:37.324Z,99689.73
2019-02-18T14:53:10.279Z,99685.57
2019-02-18T14:55:41.115Z,99685.92
2019-02-18T14:58:11.682Z,99688.37
2019-02-18T15:00:45.145Z,99687.92
2019-02-18T15:03:14.788Z,99682.98
2019-02-18T15:05:44.498Z,99685.06
2019-02-18T15:08:14.382Z,99687.60
2019-02-18T15:10:43.961Z,99687.52
2019-02-18T15:13:13.551Z,99684.50
2019-02-18T15:15:43.730Z,99690.08
2019-02-18T15:18:15.295Z,99700.45
2019-02-18T15:20:45.224Z,99696.33
2019-02-18T15:23:15.091Z,99686.69
2019-02-18T15:25:44.680Z,99696.80
2019-02-18T15:28:15.956Z,99693.63
2019-02-18T15:30:47.851Z,99696.28
2019-02-18T15:33:22.819Z,99697.44
2019-02-18T15:35:55.839Z,99695.39
2019-02-18T15:38:26.550Z,99695.94
2019-02-18T15:40:56.139Z,99693.33
2019-02-18T15:43:26.748Z,99695.39
2019-02-18T15:45:58.173Z,99698.17
2019-02-18T15:48:29.514Z,99689.02
2019-02-18T15:50:59.750Z,99696.00
2019-02-18T15:53:29.431Z,99693.33
2019-02-18T15:55:59.599Z,99705.44
2019-02-18T15:58:30.394Z,99696.05
2019-02-18T16:01:00.401Z,99689.61
2019-02-18T16:03:30.870Z,99688.31
2019-02-18T16:06:00.568Z,99691.66
2019-02-18T16:08:32.102Z,99684.31
2019-02-18T16:11:01.717Z,99686.25
2019-02-18T16:13:31.881Z,99689.77
2019-02-18T16:16:04.362Z,99688.16
2019-02-18T16:18:34.069Z,99695.95
2019-02-18T16:21:06.252Z,99690.02
2019-02-18T16:23:37.984Z,99689.67
2019-02-18T16:26:13.785Z,99702.77
2019-02-18T16:28:43.630Z,99709.74
2019-02-18T16:31:13.343Z,99706.30
2019-02-18T16:33:45.741Z,99708.56
2019-02-18T16:36:15.462Z,99707.98
2019-02-18T16:38:46.457Z,99709.73
2019-02-18T16:41:17.394Z,99707.25
2019-02-18T16:43:46.886Z,99706.35
2019-02-18T16:46:16.449Z,99704.41
2019-02-18T16:48:46.376Z,99707.53
2019-02-18T16:51:15.901Z,99708.72
2019-02-18T16:53:45.855Z,99712.77
2019-02-18T16:56:15.894Z,99715.81
2019-02-18T16:58:45.629Z,99712.94
2019-02-18T17:01:15.245Z,99712.47
2019-02-18T17:03:46.047Z,99711.63
2019-02-18T17:06:16.600Z,99715.14
2019-02-18T17:08:46.743Z,99715.31
2019-02-18T17:11:17.585Z,99707.48
2019-02-18T17:13:47.256Z,99715.83
2019-02-18T17:16:23.228Z,99715.85
2019-02-18T17:18:52.301Z,99719.58
2019-02-18T17:21:22.950Z,99731.04
2019-02-18T17:23:52.570Z,99722.08
2019-02-18T17:26:22.589Z,99730.01
2019-02-18T17:28:52.290Z,99727.20
2019-02-18T17:31:23.236Z,99727.28
2019-02-18T17:33:53.112Z,99726.03
2019-02-18T17:36:22.588Z,99724.34
2019-02-18T17:38:52.128Z,99726.34
2019-02-18T17:41:21.670Z,99724.41
2019-02-18T17:43:51.347Z,99720.57
2019-02-18T17:46:21.074Z,99715.71
2019-02-18T17:48:50.587Z,99717.34
2019-02-18T17:51:41.835Z,99722.34
2019-02-18T17:54:11.551Z,99720.66
2019-02-18T17:56:40.960Z,99718.76
2019-02-18T17:59:10.350Z,99721.98
2019-02-18T18:01:39.758Z,99722.16
2019-02-18T18:04:10.771Z,99726.55
2019-02-18T18:06:40.395Z,99726.09
2019-02-18T18:09:09.992Z,99723.75
2019-02-18T18:11:39.363Z,99732.48
2019-02-18T18:14:09.015Z,99733.74
2019-02-18T18:16:38.396Z,99736.38
2019-02-18T18:19:09.547Z,99729.48
2019-02-18T18:21:39.111Z,99726.95
2019-02-18T18:24:08.873Z,99732.14
2019-02-18T18:26:38.247Z,99732.89
2019-02-18T18:29:07.622Z,99734.92
2019-02-18T18:31:37.064Z,99732.73
2019-02-18T18:34:06.458Z,99734.42
2019-02-18T18:36:35.826Z,99737.31
2019-02-18T18:39:06.107Z,99741.69
2019-02-18T18:41:35.464Z,99740.88
2019-02-18T18:44:04.851Z,99733.10
2019-02-18T18:46:34.556Z,99736.78
2019-02-18T18:49:03.948Z,99723.60
2019-02-18T18:51:33.820Z,99726.24
2019-02-18T18:54:03.199Z,99724.20
2019-02-18T18:56:32.859Z,99730.29
2019-02-18T18:59:02.247Z,99730.39
2019-02-18T19:01:31.615Z,99726.66
2019-02-18T19:04:01.007Z,99724.34
2019-02-18T19:06:30.644Z,99731.08
2019-02-18T19:09:00.271Z,99725.59
2019-02-18T19:11:30.244Z,99728.09
2019-02-18T19:13:59.602Z,99722.95
2019-02-18T19:16:29.338Z,99730.73
2019-02-18T19:18:58.718Z,99733.33
2019-02-18T19:21:28.400Z,99718.95
2019-02-18T19:23:57.796Z,99730.83
2019-02-18T19:26:27.168Z,99733.01
2019-02-18T19:28:56.541Z,99732.67
2019-02-18T19:31:26.308Z,99733.34
2019-02-18T19:33:56.527Z,99737.17
2019-02-18T19:36:26.374Z,99746.06
2019-02-18T19:38:56.088Z,99748.98
2019-02-18T19:41:25.777Z,99751.20
2019-02-18T19:43:55.291Z,99751.92
2019-02-18T19:46:24.834Z,99750.81
2019-02-18T19:48:54.533Z,99751.11
2019-02-18T19:51:24.279Z,99750.11
2019-02-18T19:53:53.664Z,99750.66
2019-02-18T19:56:23.053Z,99747.78
2019-02-18T19:58:52.682Z,99751.34
2019-02-18T20:01:22.074Z,99753.53
2019-02-18T20:03:51.456Z,99754.06
2019-02-18T20:06:20.905Z,99757.13
2019-02-18T20:08:50.317Z,99752.05
2019-02-18T20:11:19.703Z,99753.39
2019-02-18T20:13:49.083Z,99749.70
2019-02-18T20:16:18.880Z,99752.69
2019-02-18T20:18:48.259Z,99752.95
2019-02-18T20:21:17.643Z,99744.73
2019-02-18T20:23:47.036Z,99750.69
2019-02-18T20:26:16.689Z,99753.30
2019-02-18T20:28:46.056Z,99758.34
2019-02-18T20:31:15.852Z,99765.86
2019-02-18T20:33:46.209Z,99770.84
2019-02-18T20:36:16.437Z,99772.85
2019-02-18T20:38:45.807Z,99776.66
2019-02-18T20:41:15.198Z,99767.33
2019-02-18T20:43:44.571Z,99771.14
2019-02-18T20:46:16.597Z,99769.56
2019-02-18T20:48:45.963Z,99768.73
2019-02-18T20:51:15.690Z,99769.11
2019-02-18T20:53:45.060Z,99766.94
2019-02-18T20:56:15.117Z,99759.94
2019-02-18T20:58:44.912Z,99759.70
2019-02-18T21:01:14.283Z,99760.77
2019-02-18T21:03:43.888Z,99767.94
2019-02-18T21:06:13.289Z,99769.64
2019-02-18T21:08:42.672Z,99769.38
2019-02-18T21:11:12.070Z,99772.55
2019-02-18T21:13:43.428Z,99767.13
2019-02-18T21:16:13.061Z,99769.58
2019-02-18T21:18:42.425Z,99759.69
2019-02-18T21:21:11.815Z,99757.35
2019-02-18T21:23:41.187Z,99762.62
2019-02-18T21:26:10.572Z,99763.28
2019-02-18T21:28:40.013Z,99768.35
2019-02-18T21:31:09.509Z,99769.47
2019-02-18T21:33:38.871Z,99771.98
2019-02-18T21:36:08.317Z,99771.77
2019-02-18T21:38:37.699Z,99769.31
2019-02-18T21:41:07.149Z,99765.63
2019-02-18T21:43:36.516Z,99767.23
2019-02-18T21:46:05.908Z,99761.71
2019-02-18T21:48:35.313Z,99765.00
2019-02-18T21:51:04.807Z,99768.33
2019-02-18T21:53:34.177Z,99770.61
2019-02-18T21:56:03.860Z,99770.31
2019-02-18T21:58:33.230Z,99766.70
2019-02-18T22:01:02.868Z,99766.66
2019-02-18T22:03:32.271Z,99766.13
2019-02-18T22:06:01.644Z,99763.11
2019-02-18T22:08:31.030Z,99768.01
2019-02-18T22:11:00.789Z,99772.05
2019-02-18T22:13:30.416Z,99769.77
2019-02-18T22:15:59.799Z,99765.25
2019-02-18T22:21:05.709Z,99771.79
2019-02-18T22:23:35.086Z,99768.58
2019-02-18T22:26:04.752Z,99777.34
2019-02-18T22:28:34.389Z,99771.37
2019-02-18T22:31:03.764Z,99775.95
2019-02-18T22:33:33.284Z,99770.22
2019-02-18T22:36:03.594Z,99773.95
2019-02-18T22:38:32.964Z,99771.33
2019-02-18T22:41:02.880Z,99772.45
2019-02-18T22:43:32.238Z,99767.59
2019-02-18T22:46:01.646Z,99763.23
2019-02-18T22:48:31.008Z,99767.09
2019-02-18T22:51:00.399Z,99759.58
2019-02-18T22:53:29.758Z,99764.03
2019-02-18T22:55:59.765Z,99762.33
2019-02-18T22:58:29.174Z,99759.61
2019-02-18T23:01:00.373Z,99759.30
2019-02-18T23:03:29.758Z,99755.88
2019-02-18T23:05:59.105Z,99758.41
2019-02-18T23:08:28.550Z,99752.83
2019-02-18T23:10:58.220Z,99754.19
2019-02-18T23:13:27.590Z,99751.80
2019-02-18T23:15:56.970Z,99758.19
2019-02-18T23:18:26.525Z,99749.47
2019-02-18T23:20:55.884Z,99751.84
2019-02-18T23:23:25.513Z,99751.81
2019-02-18T23:25:55.108Z,99754.58
2019-02-18T23:28:24.731Z,99751.84
2019-02-18T23:30:54.121Z,99752.98
2019-02-18T23:33:23.481Z,99750.05
2019-02-18T23:35:52.856Z,99748.03
2019-02-18T23:38:22.233Z,99756.16
2019-02-18T23:40:51.621Z,99759.91
2019-02-18T23:43:20.992Z,99758.25
2019-02-18T23:45:50.647Z,99767.55
2019-02-18T23:48:20.022Z,99760.58
2019-02-18T23:50:49.385Z,99757.73
2019-02-18T23:53:18.765Z,99756.97
2019-02-18T23:55:48.151Z,99758.86
2019-02-18T23:58:17.530Z,99762.64
